createdAt,value
2022-08-03T00:01:27.077Z,96318.84
2022-08-03T00:03:53.454Z,96329.25
2022-08-03T00:06:19.818Z,96327.47
2022-08-03T00:08:46.168Z,96328.00
2022-08-03T00:11:12.528Z,96324.22
2022-08-03T00:13:38.896Z,96322.66
2022-08-03T00:16:05.267Z,96328.13
2022-08-03T00:18:31.628Z,96322.69
2022-08-03T00:20:57.986Z,96328.13
2022-08-03T00:23:24.350Z,96327.22
2022-08-03T00:25:50.705Z,96323.81
2022-08-03T00:28:17.068Z,96325.00
2022-08-03T00:30:43.426Z,96321.06
2022-08-03T00:33:11.064Z,96325.88
2022-08-03T00:35:50.642Z,96316.88
2022-08-03T00:38:17.583Z,96319.50
2022-08-03T00:40:43.941Z,96322.34
2022-08-03T00:43:10.305Z,96320.94
2022-08-03T00:45:36.706Z,96314.97
2022-08-03T00:48:03.079Z,96319.72
2022-08-03T00:50:29.440Z,96319.72
2022-08-03T00:52:55.805Z,96327.59
2022-08-03T00:55:22.169Z,96318.91
2022-08-03T00:57:48.529Z,96320.59
2022-08-03T01:00:14.885Z,96309.91
2022-08-03T01:02:41.244Z,96310.09
2022-08-03T01:05:07.606Z,96306.75
2022-08-03T01:07:33.981Z,96320.66
2022-08-03T01:10:00.343Z,96321.44
2022-08-03T01:12:26.691Z,96314.78
2022-08-03T01:14:53.037Z,96324.44
2022-08-03T01:17:19.409Z,96320.19
2022-08-03T01:19:45.776Z,96324.91
2022-08-03T01:22:12.146Z,96322.56
2022-08-03T01:24:38.505Z,96312.00
2022-08-03T01:27:07.279Z,96313.72
2022-08-03T01:29:33.636Z,96305.84
2022-08-03T01:32:58.119Z,96306.00
2022-08-03T01:34:46.361Z,96312.22
2022-08-03T01:37:12.728Z,96311.69
2022-08-03T01:39:39.088Z,96311.84
2022-08-03T01:42:05.461Z,96304.63
2022-08-03T01:44:31.828Z,96307.88
2022-08-03T01:46:58.180Z,96306.75
2022-08-03T01:49:24.597Z,96309.13
2022-08-03T01:52:03.056Z,96302.03
2022-08-03T01:54:30.123Z,96309.31
2022-08-03T01:56:56.493Z,96313.78
2022-08-03T01:59:22.846Z,96302.66
2022-08-03T02:02:32.170Z,96309.72
2022-08-03T02:04:35.535Z,96312.47
2022-08-03T02:07:03.380Z,96308.16
2022-08-03T02:09:29.947Z,96310.91
2022-08-03T02:11:56.307Z,96307.13
2022-08-03T02:14:22.653Z,96314.03
2022-08-03T02:16:49.012Z,96309.06
2022-08-03T02:19:15.382Z,96307.78
2022-08-03T02:21:56.602Z,96314.03
2022-08-03T02:24:27.320Z,96310.44
2022-08-03T02:26:53.683Z,96315.88
2022-08-03T02:29:20.032Z,96310.34
2022-08-03T02:31:46.434Z,96318.88
2022-08-03T02:34:12.805Z,96313.78
2022-08-03T02:36:39.179Z,96317.75
2022-08-03T02:39:05.537Z,96318.34
2022-08-03T02:41:31.892Z,96321.00
2022-08-03T02:44:06.979Z,96326.38
2022-08-03T02:46:33.812Z,96314.56
2022-08-03T02:49:00.197Z,96312.88
2022-08-03T02:51:46.533Z,96319.16
2022-08-03T02:54:12.904Z,96325.16
2022-08-03T02:56:39.263Z,96322.00
2022-08-03T02:59:05.623Z,96313.78
2022-08-03T03:01:32.047Z,96317.59
2022-08-03T03:03:58.445Z,96310.34
2022-08-03T03:06:24.806Z,96315.63
2022-08-03T03:08:59.520Z,96320.22
2022-08-03T03:11:26.169Z,96319.41
2022-08-03T03:13:52.521Z,96318.03
2022-08-03T03:16:18.908Z,96314.81
2022-08-03T03:18:45.274Z,96314.16
2022-08-03T03:21:11.626Z,96319.06
2022-08-03T03:23:37.980Z,96316.50
2022-08-03T03:26:04.344Z,96321.66
2022-08-03T03:28:31.164Z,96318.50
2022-08-03T03:30:57.541Z,96318.50
2022-08-03T03:33:23.917Z,96329.06
2022-08-03T03:35:50.289Z,96319.16
2022-08-03T03:38:16.648Z,96323.84
2022-08-03T03:40:43.000Z,96323.44
2022-08-03T03:43:09.347Z,96319.00
2022-08-03T03:45:35.712Z,96320.44
2022-08-03T03:48:02.078Z,96321.56
2022-08-03T03:50:28.431Z,96328.66
2022-08-03T03:52:54.776Z,96325.06
2022-08-03T03:55:21.137Z,96333.25
2022-08-03T03:57:47.500Z,96327.69
2022-08-03T04:00:13.865Z,96325.94
2022-08-03T04:02:40.224Z,96322.00
2022-08-03T04:05:06.590Z,96325.53
2022-08-03T04:07:32.959Z,96326.28
2022-08-03T04:09:59.373Z,96329.66
2022-08-03T04:12:35.252Z,96333.25
2022-08-03T04:15:01.630Z,96328.44
2022-08-03T04:17:27.998Z,96328.88
2022-08-03T04:19:54.361Z,96321.78
2022-08-03T04:22:20.733Z,96326.25
2022-08-03T04:24:47.093Z,96332.88
2022-08-03T04:27:13.444Z,96329.09
2022-08-03T04:29:48.047Z,96326.53
2022-08-03T04:32:15.124Z,96322.25
2022-08-03T04:34:41.645Z,96327.28
2022-08-03T04:37:08.008Z,96328.88
2022-08-03T04:39:34.396Z,96334.22
2022-08-03T04:42:07.417Z,96332.13
2022-08-03T04:44:35.227Z,96333.72
2022-08-03T04:47:01.586Z,96335.28
2022-08-03T04:49:27.968Z,96334.81
2022-08-03T04:51:54.376Z,96329.66
2022-08-03T04:54:20.745Z,96326.69
2022-08-03T04:56:47.110Z,96336.75
2022-08-03T04:59:13.488Z,96336.47
2022-08-03T05:01:39.887Z,96343.34
2022-08-03T05:04:06.272Z,96341.25
2022-08-03T05:06:32.628Z,96345.53
2022-08-03T05:08:59.662Z,96349.28
2022-08-03T05:11:26.157Z,96356.09
2022-08-03T05:13:52.525Z,96352.25
2022-08-03T05:16:18.895Z,96356.47
2022-08-03T05:18:45.282Z,96359.63
2022-08-03T05:21:11.645Z,96355.19
2022-08-03T05:23:38.029Z,96357.06
2022-08-03T05:26:04.383Z,96361.13
2022-08-03T05:28:30.729Z,96360.66
2022-08-03T05:30:57.089Z,96371.06
2022-08-03T05:33:23.452Z,96362.06
2022-08-03T05:36:00.819Z,96374.03
2022-08-03T05:38:34.768Z,96375.75
2022-08-03T05:41:21.457Z,96367.56
2022-08-03T05:43:48.174Z,96371.50
2022-08-03T05:46:14.540Z,96369.28
2022-08-03T05:48:40.897Z,96374.66
2022-08-03T05:51:07.261Z,96375.09
2022-08-03T05:53:33.625Z,96373.84
2022-08-03T05:56:03.559Z,96370.06
2022-08-03T05:58:41.140Z,96378.09
2022-08-03T06:01:07.572Z,96375.41
2022-08-03T06:03:33.979Z,96367.06
2022-08-03T06:06:00.791Z,96372.41
2022-08-03T06:08:27.254Z,96374.03
2022-08-03T06:10:53.630Z,96377.78
2022-08-03T06:13:20.019Z,96371.81
2022-08-03T06:15:46.379Z,96376.22
2022-08-03T06:18:12.737Z,96379.53
2022-08-03T06:20:39.085Z,96380.31
2022-08-03T06:23:06.388Z,96381.88
2022-08-03T06:25:33.986Z,96381.88
2022-08-03T06:28:00.339Z,96385.03
2022-08-03T06:30:26.819Z,96388.19
2022-08-03T06:32:53.241Z,96389.75
2022-08-03T06:35:19.606Z,96387.72
2022-08-03T06:37:45.966Z,96387.41
2022-08-03T06:40:13.809Z,96395.78
2022-08-03T06:42:40.404Z,96386.91
2022-08-03T06:45:06.764Z,96393.84
2022-08-03T06:47:33.134Z,96400.78
2022-08-03T06:50:16.151Z,96398.56
2022-08-03T06:52:44.453Z,96403.28
2022-08-03T06:55:10.830Z,96397.91
2022-08-03T06:57:37.195Z,96403.75
2022-08-03T07:00:08.850Z,96405.44
2022-08-03T07:02:38.116Z,96405.94
2022-08-03T07:05:05.472Z,96406.69
2022-08-03T07:07:31.825Z,96413.66
2022-08-03T07:09:58.452Z,96407.97
2022-08-03T07:12:24.885Z,96412.34
2022-08-03T07:14:51.247Z,96417.06
2022-08-03T07:17:17.603Z,96413.91
2022-08-03T07:19:43.965Z,96416.44
2022-08-03T07:22:10.320Z,96424.00
2022-08-03T07:24:36.688Z,96421.97
2022-08-03T07:27:03.054Z,96419.28
2022-08-03T07:29:29.414Z,96426.69
2022-08-03T07:32:01.113Z,96420.19
2022-08-03T07:34:27.469Z,96417.53
2022-08-03T07:36:53.855Z,96425.44
2022-08-03T07:39:20.216Z,96416.13
2022-08-03T07:41:46.577Z,96421.50
2022-08-03T07:44:12.932Z,96418.22
2022-08-03T07:46:39.294Z,96425.31
2022-08-03T07:49:05.751Z,96418.38
2022-08-03T07:51:32.164Z,96421.06
2022-08-03T07:53:58.527Z,96419.44
2022-08-03T07:56:24.911Z,96420.84
2022-08-03T07:58:51.279Z,96415.22
2022-08-03T08:01:17.678Z,96417.44
2022-08-03T08:03:52.912Z,96424.38
2022-08-03T08:06:19.969Z,96415.22
2022-08-03T08:08:46.467Z,96415.94
2022-08-03T08:11:12.819Z,96417.53
2022-08-03T08:13:39.172Z,96412.34
2022-08-03T08:16:05.571Z,96414.84
2022-08-03T08:18:31.929Z,96412.47
2022-08-03T08:20:58.287Z,96415.47
2022-08-03T08:23:42.700Z,96421.97
2022-08-03T08:26:10.642Z,96420.09
2022-08-03T08:28:37.023Z,96415.47
2022-08-03T08:31:03.381Z,96414.38
2022-08-03T08:33:47.987Z,96415.78
2022-08-03T08:36:16.096Z,96417.84
2022-08-03T08:38:42.476Z,96409.94
2022-08-03T08:41:08.847Z,96411.31
2022-08-03T08:43:35.206Z,96411.06
2022-08-03T08:46:01.561Z,96411.06
2022-08-03T08:48:27.921Z,96412.63
2022-08-03T08:50:54.290Z,96405.03
2022-08-03T08:53:26.797Z,96398.22
2022-08-03T08:55:59.399Z,96406.22
2022-08-03T08:58:26.596Z,96402.75
2022-08-03T09:00:53.315Z,96407.34
2022-08-03T09:03:26.198Z,96415.56
2022-08-03T09:05:56.576Z,96408.88
2022-08-03T09:08:23.006Z,96413.03
2022-08-03T09:10:49.365Z,96410.66
2022-08-03T09:13:15.723Z,96418.56
2022-08-03T09:15:42.086Z,96417.16
2022-08-03T09:18:26.885Z,96419.34
2022-08-03T09:20:56.951Z,96411.56
2022-08-03T09:23:44.605Z,96412.56
2022-08-03T09:26:09.650Z,96404.97
2022-08-03T09:29:01.558Z,96418.53
2022-08-03T09:31:23.423Z,96413.97
2022-08-03T09:33:49.791Z,96416.31
2022-08-03T09:36:16.161Z,96417.59
2022-08-03T09:38:42.512Z,96409.88
2022-08-03T09:41:08.874Z,96402.44
2022-08-03T09:43:35.223Z,96399.75
2022-08-03T09:46:01.579Z,96403.22
2022-08-03T09:48:27.936Z,96404.97
2022-08-03T09:50:56.989Z,96405.22
2022-08-03T09:53:25.309Z,96399.59
2022-08-03T09:56:33.372Z,96401.81
2022-08-03T09:58:38.012Z,96402.59
2022-08-03T10:01:04.489Z,96396.44
2022-08-03T10:03:31.740Z,96397.06
2022-08-03T10:06:00.035Z,96399.28
2022-08-03T10:08:26.596Z,96396.91
2022-08-03T10:10:52.956Z,96390.25
2022-08-03T10:13:19.307Z,96382.50
2022-08-03T10:16:22.944Z,96387.41
2022-08-03T10:18:32.000Z,96387.41
2022-08-03T10:20:58.382Z,96384.72
2022-08-03T10:23:24.752Z,96384.28
2022-08-03T10:25:51.100Z,96376.09
2022-08-03T10:28:17.455Z,96376.22
2022-08-03T10:30:43.824Z,96376.22
2022-08-03T10:33:12.337Z,96373.06
2022-08-03T10:35:56.527Z,96369.28
2022-08-03T10:38:22.893Z,96374.13
2022-08-03T10:40:51.046Z,96369.72
2022-08-03T10:43:18.980Z,96369.75
2022-08-03T10:45:45.382Z,96370.84
2022-08-03T10:48:11.757Z,96368.63
2022-08-03T10:50:38.123Z,96360.41
2022-08-03T10:53:04.489Z,96362.63
2022-08-03T10:55:30.847Z,96361.34
2022-08-03T10:57:58.853Z,96359.47
2022-08-03T11:00:25.521Z,96355.19
2022-08-03T11:02:51.911Z,96356.31
2022-08-03T11:05:18.291Z,96360.41
2022-08-03T11:07:47.388Z,96354.75
2022-08-03T11:10:21.103Z,96355.50
2022-08-03T11:12:47.464Z,96356.97
2022-08-03T11:15:13.835Z,96351.59
2022-08-03T11:17:46.349Z,96356.50
2022-08-03T11:20:22.132Z,96346.22
2022-08-03T11:22:48.491Z,96343.88
2022-08-03T11:25:54.714Z,96343.88
2022-08-03T11:28:01.185Z,96338.63
2022-08-03T11:30:27.796Z,96343.41
2022-08-03T11:32:54.246Z,96338.81
2022-08-03T11:35:20.604Z,96333.00
2022-08-03T11:38:04.418Z,96333.94
2022-08-03T11:40:31.771Z,96332.34
2022-08-03T11:42:58.146Z,96322.25
2022-08-03T11:45:24.491Z,96326.06
2022-08-03T11:47:51.552Z,96322.72
2022-08-03T11:50:18.026Z,96325.41
2022-08-03T11:52:44.395Z,96324.75
2022-08-03T11:55:10.777Z,96322.53
2022-08-03T11:59:01.490Z,96316.38
2022-08-03T12:00:23.543Z,96308.63
2022-08-03T12:02:52.341Z,96307.72
2022-08-03T12:05:18.733Z,96307.06
2022-08-03T12:08:03.779Z,96307.06
2022-08-03T12:10:30.856Z,96295.69
2022-08-03T12:12:57.216Z,96297.72
2022-08-03T12:15:23.584Z,96293.44
2022-08-03T12:17:51.250Z,96296.59
2022-08-03T12:20:19.113Z,96297.09
2022-08-03T12:22:45.470Z,96293.91
2022-08-03T12:25:11.827Z,96289.03
2022-08-03T12:27:38.198Z,96295.75
2022-08-03T12:30:04.571Z,96289.94
2022-08-03T12:32:30.939Z,96290.59
2022-08-03T12:34:57.301Z,96282.56
2022-08-03T12:37:23.951Z,96276.53
2022-08-03T12:40:02.289Z,96273.66
2022-08-03T12:42:30.531Z,96276.69
2022-08-03T12:44:56.888Z,96272.34
2022-08-03T12:47:23.251Z,96269.19
2022-08-03T12:49:49.617Z,96263.56
2022-08-03T12:52:15.991Z,96266.06
2022-08-03T12:54:42.360Z,96270.97
2022-08-03T12:57:08.721Z,96268.16
2022-08-03T12:59:40.791Z,96264.47
2022-08-03T13:02:09.671Z,96268.94
2022-08-03T13:04:36.240Z,96268.28
2022-08-03T13:07:03.400Z,96268.94
2022-08-03T13:09:29.986Z,96265.59
2022-08-03T13:12:02.239Z,96258.44
2022-08-03T13:14:28.995Z,96263.56
2022-08-03T13:16:55.362Z,96261.56
2022-08-03T13:19:21.730Z,96258.34
2022-08-03T13:22:03.344Z,96263.44
2022-08-03T13:24:31.659Z,96252.97
2022-08-03T13:26:58.301Z,96258.34
2022-08-03T13:29:24.655Z,96250.16
2022-08-03T13:31:51.401Z,96250.16
2022-08-03T13:34:22.251Z,96248.03
2022-08-03T13:39:58.025Z,96247.00
2022-08-03T13:42:22.372Z,96249.69
2022-08-03T13:44:48.730Z,96247.25
2022-08-03T13:47:15.096Z,96250.69
2022-08-03T13:49:41.457Z,96236.94
2022-08-03T13:52:07.830Z,96235.16
2022-08-03T13:54:34.193Z,96230.44
2022-08-03T13:58:01.028Z,96233.84
2022-08-03T13:59:46.894Z,96234.16
2022-08-03T14:02:13.320Z,96231.25
2022-08-03T14:04:39.709Z,96227.34
2022-08-03T14:07:06.087Z,96228.31
2022-08-03T14:09:32.452Z,96223.31
2022-08-03T14:12:06.946Z,96216.16
2022-08-03T14:14:34.227Z,96221.09
2022-08-03T14:17:00.596Z,96217.28
2022-08-03T14:19:26.953Z,96209.88
2022-08-03T14:22:06.073Z,96218.16
2022-08-03T14:24:33.238Z,96205.63
2022-08-03T14:27:07.120Z,96205.88
2022-08-03T14:29:35.481Z,96197.00
2022-08-03T14:32:10.874Z,96199.59
2022-08-03T14:34:39.148Z,96192.22
2022-08-03T14:37:05.511Z,96188.41
2022-08-03T14:39:58.271Z,96185.94
2022-08-03T14:42:18.251Z,96179.13
2022-08-03T14:44:44.619Z,96184.59
2022-08-03T14:47:10.976Z,96184.59
2022-08-03T14:50:38.969Z,96183.91
2022-08-03T14:52:23.689Z,96180.34
2022-08-03T14:54:50.055Z,96176.31
2022-08-03T14:57:16.418Z,96167.78
2022-08-03T14:59:55.516Z,96175.84
2022-08-03T15:02:24.074Z,96170.94
2022-08-03T15:04:50.747Z,96169.84
2022-08-03T15:07:17.233Z,96176.31
2022-08-03T15:09:43.695Z,96177.91
2022-08-03T15:12:10.053Z,96168.72
2022-08-03T15:14:37.918Z,96166.69
2022-08-03T15:17:04.378Z,96164.00
2022-08-03T15:20:01.640Z,96164.00
2022-08-03T15:22:17.102Z,96161.53
2022-08-03T15:24:46.949Z,96153.94
2022-08-03T15:27:13.307Z,96157.03
2022-08-03T15:30:08.133Z,96153.94
2022-08-03T15:32:26.379Z,96148.44
2022-08-03T15:34:52.817Z,96143.59
2022-08-03T15:37:19.193Z,96145.19
2022-08-03T15:40:00.017Z,96144.84
2022-08-03T15:42:27.074Z,96150.22
2022-08-03T15:44:53.840Z,96137.34
2022-08-03T15:47:21.350Z,96144.28
2022-08-03T15:49:47.913Z,96134.19
2022-08-03T15:52:14.312Z,96136.69
2022-08-03T15:54:40.675Z,96129.06
2022-08-03T15:57:07.044Z,96132.66
2022-08-03T15:59:33.397Z,96127.94
2022-08-03T16:01:59.827Z,96137.56
2022-08-03T16:04:26.226Z,96132.44
2022-08-03T16:06:52.584Z,96133.00
2022-08-03T16:09:23.949Z,96124.38
2022-08-03T16:12:05.285Z,96123.59
2022-08-03T16:14:51.190Z,96113.16
2022-08-03T16:17:18.773Z,96119.44
2022-08-03T16:19:45.315Z,96125.03
2022-08-03T16:22:11.689Z,96121.09
2022-08-03T16:24:40.700Z,96121.78
2022-08-03T16:27:17.285Z,96117.88
2022-08-03T16:29:53.404Z,96113.38
2022-08-03T16:32:19.754Z,96102.63
2022-08-03T16:34:46.118Z,96111.81
2022-08-03T16:37:37.146Z,96107.34
2022-08-03T16:39:58.865Z,96101.97
2022-08-03T16:42:25.239Z,96105.78
2022-08-03T16:44:51.602Z,96099.06
2022-08-03T16:47:21.833Z,96096.94
2022-08-03T16:49:54.748Z,96097.94
2022-08-03T16:52:22.910Z,96091.88
2022-08-03T16:54:52.606Z,96093.81
2022-08-03T16:57:56.427Z,96095.25
2022-08-03T17:00:06.067Z,96099.06
2022-08-03T17:02:32.473Z,96101.75
2022-08-03T17:04:58.883Z,96098.72
2022-08-03T17:07:26.027Z,96096.59
2022-08-03T17:09:56.243Z,96092.13
2022-08-03T17:12:22.917Z,96093.03
2022-08-03T17:14:53.152Z,96096.84
2022-08-03T17:17:19.512Z,96096.16
2022-08-03T17:19:47.472Z,96100.97
2022-08-03T17:22:20.591Z,96097.84
2022-08-03T17:24:48.464Z,96091.69
2022-08-03T17:28:41.602Z,96094.91
2022-08-03T17:30:01.164Z,96096.38
2022-08-03T17:32:29.035Z,96092.56
2022-08-03T17:34:56.148Z,96084.06
2022-08-03T17:37:27.237Z,96094.69
2022-08-03T17:40:08.885Z,96089.44
2022-08-03T17:42:35.333Z,96097.84
2022-08-03T17:45:03.957Z,96094.81
2022-08-03T17:47:42.653Z,96091.00
2022-08-03T17:50:09.816Z,96092.47
2022-08-03T17:52:51.812Z,96097.06
2022-08-03T17:55:55.169Z,96095.59
2022-08-03T17:58:04.538Z,96101.75
2022-08-03T18:00:30.905Z,96105.44
2022-08-03T18:02:57.873Z,96104.66
2022-08-03T18:06:10.540Z,96104.09
2022-08-03T18:08:12.854Z,96101.09
2022-08-03T18:10:49.766Z,96114.16
2022-08-03T18:13:16.514Z,96107.00
2022-08-03T18:15:42.877Z,96108.56
2022-08-03T18:18:10.949Z,96104.56
2022-08-03T18:20:41.538Z,96111.13
2022-08-03T18:23:08.820Z,96112.94
2022-08-03T18:25:42.367Z,96113.34
2022-08-03T18:28:12.241Z,96116.34
2022-08-03T18:30:39.101Z,96103.91
2022-08-03T18:34:19.400Z,96109.13
2022-08-03T18:36:07.518Z,96110.84
2022-08-03T18:38:35.567Z,96113.09
2022-08-03T18:41:01.965Z,96113.09
2022-08-03T18:43:46.497Z,96114.19
2022-08-03T18:46:13.807Z,96115.31
2022-08-03T18:48:40.627Z,96113.09
2022-08-03T18:51:12.472Z,96113.09
2022-08-03T18:54:03.149Z,96118.22
2022-08-03T18:56:31.905Z,96113.09
2022-08-03T18:59:02.499Z,96118.69
2022-08-03T19:02:00.914Z,96123.84
2022-08-03T19:04:15.472Z,96114.66
2022-08-03T19:06:43.390Z,96117.22
2022-08-03T19:09:10.788Z,96109.81
2022-08-03T19:11:37.149Z,96116.44
2022-08-03T19:14:28.678Z,96111.59
2022-08-03T19:16:55.777Z,96118.72
2022-08-03T19:19:22.139Z,96119.38
2022-08-03T19:21:51.070Z,96120.16
2022-08-03T19:24:17.420Z,96126.97
2022-08-03T19:26:48.548Z,96133.78
2022-08-03T19:29:18.542Z,96136.13
2022-08-03T19:31:59.004Z,96135.25
2022-08-03T19:34:35.086Z,96150.69
2022-08-03T19:37:04.420Z,96150.81
2022-08-03T19:39:33.669Z,96148.91
2022-08-03T19:42:08.027Z,96139.13
2022-08-03T19:44:34.640Z,96147.63
2022-08-03T19:47:01.148Z,96153.44
2022-08-03T19:49:57.698Z,96149.63
2022-08-03T19:52:14.047Z,96157.34
2022-08-03T19:54:52.906Z,96153.00
2022-08-03T19:57:20.055Z,96150.09
2022-08-03T19:59:50.008Z,96151.66
2022-08-03T20:02:17.478Z,96154.69
2022-08-03T20:04:53.725Z,96158.81
2022-08-03T20:07:22.750Z,96155.00
2022-08-03T20:09:49.423Z,96160.84
2022-08-03T20:12:27.361Z,96162.84
2022-08-03T20:14:55.058Z,96153.00
2022-08-03T20:17:22.722Z,96157.94
2022-08-03T20:20:09.057Z,96159.50
2022-08-03T20:22:35.408Z,96149.22
2022-08-03T20:25:05.520Z,96149.88
2022-08-03T20:27:31.879Z,96161.72
2022-08-03T20:30:18.217Z,96156.13
2022-08-03T20:32:52.746Z,96152.31
2022-08-03T20:35:19.118Z,96159.94
2022-08-03T20:37:46.635Z,96164.19
2022-08-03T20:40:12.991Z,96161.84
2022-08-03T20:42:40.628Z,96165.31
2022-08-03T20:45:07.002Z,96164.19
2022-08-03T20:47:41.680Z,96160.72
2022-08-03T20:50:17.359Z,96147.06
2022-08-03T20:52:49.328Z,96158.38
2022-08-03T20:55:16.240Z,96162.19
2022-08-03T20:57:42.600Z,96154.59
2022-08-03T21:00:17.970Z,96164.88
2022-08-03T21:02:44.332Z,96163.03
2022-08-03T21:05:10.695Z,96168.69
2022-08-03T21:08:04.222Z,96168.44
2022-08-03T21:10:27.842Z,96176.97
2022-08-03T21:13:13.049Z,96179.19
2022-08-03T21:16:04.863Z,96176.50
2022-08-03T21:18:28.151Z,96184.13
2022-08-03T21:20:55.473Z,96183.00
2022-08-03T21:23:39.764Z,96180.78
2022-08-03T21:26:08.188Z,96174.47
2022-08-03T21:28:34.546Z,96177.16
2022-08-03T21:31:00.906Z,96174.94
2022-08-03T21:33:27.264Z,96173.81
2022-08-03T21:35:53.615Z,96178.50
2022-08-03T21:38:19.974Z,96178.97
2022-08-03T21:40:46.334Z,96187.91
2022-08-03T21:43:15.622Z,96187.22
2022-08-03T21:45:41.995Z,96182.63
2022-08-03T21:48:08.356Z,96189.34
2022-08-03T21:50:34.737Z,96188.28
2022-08-03T21:53:01.146Z,96188.94
2022-08-03T21:55:27.508Z,96187.16
2022-08-03T21:57:53.872Z,96186.91
2022-08-03T22:00:20.246Z,96194.72
2022-08-03T22:02:51.679Z,96192.50
2022-08-03T22:05:28.841Z,96186.25
2022-08-03T22:08:08.367Z,96193.16
2022-08-03T22:10:34.738Z,96197.06
2022-08-03T22:13:01.107Z,96195.38
2022-08-03T22:15:27.458Z,96196.97
2022-08-03T22:17:57.145Z,96194.97
2022-08-03T22:20:23.835Z,96196.53
2022-08-03T22:22:55.174Z,96203.47
2022-08-03T22:25:22.744Z,96203.34
2022-08-03T22:27:49.100Z,96204.69
2022-08-03T22:30:15.458Z,96200.72
2022-08-03T22:32:41.817Z,96199.19
2022-08-03T22:35:08.182Z,96209.91
2022-08-03T22:37:34.554Z,96215.94
2022-08-03T22:40:00.921Z,96218.44
2022-08-03T22:42:27.301Z,96220.22
2022-08-03T22:44:53.661Z,96223.13
2022-08-03T22:47:22.725Z,96224.91
2022-08-03T22:49:49.524Z,96223.53
2022-08-03T22:52:35.877Z,96223.13
2022-08-03T22:55:02.244Z,96225.34
2022-08-03T22:57:28.608Z,96234.47
2022-08-03T22:59:54.968Z,96235.31
2022-08-03T23:02:21.816Z,96223.47
2022-08-03T23:04:48.234Z,96225.13
2022-08-03T23:07:14.623Z,96226.69
2022-08-03T23:09:40.972Z,96228.78
2022-08-03T23:12:07.319Z,96228.19
2022-08-03T23:14:33.689Z,96226.44
2022-08-03T23:17:00.069Z,96228.19
2022-08-03T23:19:26.456Z,96236.22
2022-08-03T23:22:02.878Z,96238.25
2022-08-03T23:24:30.498Z,96233.34
2022-08-03T23:26:56.932Z,96236.94
2022-08-03T23:29:23.298Z,96238.97
2022-08-03T23:31:49.664Z,96236.03
2022-08-03T23:34:16.753Z,96230.88
2022-08-03T23:36:43.276Z,96228.41
2022-08-03T23:39:09.809Z,96231.28
2022-08-03T23:41:36.225Z,96228.31
2022-08-03T23:44:02.601Z,96234.66
2022-08-03T23:46:30.128Z,96232.19
2022-08-03T23:48:56.771Z,96238.28
2022-08-03T23:51:23.209Z,96230.75
2022-08-03T23:53:49.575Z,96230.22
2022-08-03T23:56:15.934Z,96238.34
2022-08-03T23:58:42.300Z,96234.44
